createdAt,value
2022-08-19T00:00:15.640Z,8.93
2022-08-19T00:02:50.022Z,9.77
2022-08-19T00:05:21.090Z,10.40
2022-08-19T00:07:51.088Z,8.90
2022-08-19T00:10:21.701Z,7.67
2022-08-19T00:12:49.909Z,8.80
2022-08-19T00:15:23.976Z,10.60
2022-08-19T00:17:51.492Z,9.60
2022-08-19T00:20:23.495Z,9.60
2022-08-19T00:22:51.401Z,9.43
2022-08-19T00:25:29.960Z,11.73
2022-08-19T00:28:00.413Z,10.23
2022-08-19T00:30:31.303Z,9.10
2022-08-19T00:33:00.027Z,11.73
2022-08-19T00:35:28.407Z,12.00
2022-08-19T00:37:57.367Z,10.37
2022-08-19T00:40:26.118Z,10.30
2022-08-19T00:42:56.933Z,10.37
2022-08-19T00:45:32.720Z,9.83
2022-08-19T00:48:05.593Z,9.80
2022-08-19T00:50:51.890Z,11.17
2022-08-19T00:53:29.769Z,9.87
2022-08-19T00:56:03.482Z,10.97
2022-08-19T00:58:36.260Z,11.70
2022-08-19T01:01:06.284Z,10.97
2022-08-19T01:03:40.288Z,12.43
2022-08-19T01:06:21.947Z,9.63
2022-08-19T01:08:50.079Z,10.67
2022-08-19T01:11:18.656Z,13.93
2022-08-19T01:13:50.036Z,11.93
2022-08-19T01:16:22.737Z,10.30
2022-08-19T01:18:51.423Z,10.20
2022-08-19T01:21:49.703Z,10.93
2022-08-19T01:24:17.529Z,10.60
2022-08-19T01:26:49.145Z,10.50
2022-08-19T01:29:17.293Z,9.40
2022-08-19T01:31:44.828Z,11.90
2022-08-19T01:34:12.478Z,10.47
2022-08-19T01:36:48.419Z,12.43
2022-08-19T01:39:26.117Z,10.13
2022-08-19T01:41:55.446Z,10.90
2022-08-19T01:44:25.132Z,10.73
2022-08-19T01:46:53.532Z,11.43
2022-08-19T01:49:26.336Z,9.90
2022-08-19T01:51:55.014Z,10.33
2022-08-19T01:54:34.289Z,11.60
2022-08-19T01:57:17.953Z,10.23
2022-08-19T01:59:48.265Z,12.50
2022-08-19T02:02:15.837Z,10.60
2022-08-19T02:04:43.446Z,10.17
2022-08-19T02:07:11.025Z,9.63
2022-08-19T02:09:38.573Z,10.43
2022-08-19T02:12:09.877Z,9.80
2022-08-19T02:14:38.590Z,10.90
2022-08-19T02:17:06.159Z,10.10
2022-08-19T02:19:34.170Z,9.90
2022-08-19T02:22:02.118Z,11.00
2022-08-19T02:24:29.868Z,10.33
2022-08-19T02:26:58.360Z,11.50
2022-08-19T02:29:25.991Z,9.03
2022-08-19T02:31:53.478Z,11.90
2022-08-19T02:34:21.157Z,10.40
2022-08-19T02:36:50.611Z,13.60
2022-08-19T02:39:20.329Z,9.93
2022-08-19T02:41:47.837Z,10.73
2022-08-19T02:44:29.882Z,10.00
2022-08-19T02:47:00.374Z,9.80
2022-08-19T02:49:27.889Z,10.80
2022-08-19T02:51:55.416Z,11.23
2022-08-19T02:54:22.959Z,11.57
2022-08-19T02:56:51.113Z,11.17
2022-08-19T02:59:20.215Z,10.87
2022-08-19T03:01:50.605Z,10.67
2022-08-19T03:04:20.574Z,12.13
2022-08-19T03:06:49.157Z,11.80
2022-08-19T03:09:20.204Z,13.13
2022-08-19T03:11:49.827Z,11.83
2022-08-19T03:14:20.639Z,12.73
2022-08-19T03:16:53.421Z,12.40
2022-08-19T03:19:24.889Z,12.70
2022-08-19T03:21:53.829Z,11.93
2022-08-19T03:24:22.601Z,17.57
2022-08-19T03:26:58.735Z,14.10
2022-08-19T03:29:32.061Z,12.13
2022-08-19T03:32:05.923Z,12.70
2022-08-19T03:34:38.708Z,12.70
2022-08-19T03:37:15.490Z,15.23
2022-08-19T03:39:43.551Z,12.73
2022-08-19T03:42:38.825Z,16.97
2022-08-19T03:45:01.156Z,12.93
2022-08-19T03:47:28.681Z,14.83
2022-08-19T03:49:56.559Z,13.80
2022-08-19T03:52:24.048Z,13.73
2022-08-19T03:54:51.516Z,16.57
2022-08-19T03:57:19.042Z,13.93
2022-08-19T03:59:46.532Z,14.10
2022-08-19T04:02:15.416Z,13.93
2022-08-19T04:04:45.220Z,15.93
2022-08-19T04:07:17.283Z,17.47
2022-08-19T04:09:45.648Z,16.10
2022-08-19T04:12:13.211Z,15.67
2022-08-19T04:14:41.078Z,14.10
2022-08-19T04:17:09.120Z,19.93
2022-08-19T04:19:38.333Z,23.50
2022-08-19T04:22:08.204Z,14.47
2022-08-19T04:24:37.120Z,14.00
2022-08-19T04:27:07.175Z,13.13
2022-08-19T04:29:35.721Z,13.83
2022-08-19T04:32:08.556Z,11.77
2022-08-19T04:35:02.575Z,13.73
2022-08-19T04:37:27.440Z,12.57
2022-08-19T04:40:17.702Z,12.93
2022-08-19T04:42:45.929Z,13.03
2022-08-19T04:45:17.488Z,12.83
2022-08-19T04:47:47.011Z,13.27
2022-08-19T04:50:19.669Z,14.27
2022-08-19T04:52:47.350Z,12.67
2022-08-19T04:55:15.538Z,12.93
2022-08-19T04:57:43.119Z,14.33
2022-08-19T05:00:12.660Z,12.80
2022-08-19T05:02:40.857Z,13.70
2022-08-19T05:05:09.300Z,16.63
2022-08-19T05:07:37.699Z,14.23
2022-08-19T05:10:08.533Z,12.27
2022-08-19T05:12:36.728Z,17.80
2022-08-19T05:15:09.577Z,12.83
2022-08-19T05:17:39.168Z,14.63
2022-08-19T05:20:29.901Z,16.73
2022-08-19T05:22:57.400Z,19.00
2022-08-19T05:25:25.660Z,15.20
2022-08-19T05:27:53.381Z,15.57
2022-08-19T05:30:33.354Z,17.20
2022-08-19T05:33:01.658Z,20.03
2022-08-19T05:35:29.470Z,15.40
2022-08-19T05:38:02.660Z,15.03
2022-08-19T05:40:30.504Z,15.77
2022-08-19T05:42:58.009Z,15.50
2022-08-19T05:45:25.787Z,15.00
2022-08-19T05:47:53.610Z,16.33
2022-08-19T05:50:21.902Z,17.43
2022-08-19T05:52:50.674Z,16.83
2022-08-19T05:55:21.125Z,18.50
2022-08-19T05:57:48.988Z,15.87
2022-08-19T06:00:20.400Z,20.87
2022-08-19T06:02:52.479Z,21.00
2022-08-19T06:05:21.152Z,19.57
2022-08-19T06:07:48.735Z,22.13
2022-08-19T06:10:16.485Z,21.10
2022-08-19T06:12:43.936Z,19.17
2022-08-19T06:15:15.829Z,14.10
2022-08-19T06:17:47.517Z,14.30
2022-08-19T06:20:34.356Z,19.67
2022-08-19T06:23:11.148Z,18.07
2022-08-19T06:25:44.790Z,18.20
2022-08-19T06:28:15.514Z,19.67
2022-08-19T06:30:43.269Z,23.67
2022-08-19T06:33:10.857Z,17.40
2022-08-19T06:35:43.071Z,17.30
2022-08-19T06:38:11.151Z,16.97
2022-08-19T06:40:39.569Z,17.93
2022-08-19T06:43:08.463Z,22.53
2022-08-19T06:45:39.875Z,20.10
2022-08-19T06:48:08.072Z,18.60
2022-08-19T06:50:36.716Z,18.67
2022-08-19T06:53:07.014Z,17.20
2022-08-19T06:55:34.601Z,16.33
2022-08-19T06:58:06.626Z,15.30
2022-08-19T07:00:40.031Z,16.97
2022-08-19T07:03:09.092Z,16.40
2022-08-19T07:05:45.335Z,16.80
2022-08-19T07:08:14.979Z,15.07
2022-08-19T07:10:47.200Z,12.63
2022-08-19T07:13:15.343Z,16.40
2022-08-19T07:15:43.545Z,15.03
2022-08-19T07:18:11.678Z,14.33
2022-08-19T07:20:42.772Z,12.65
2022-08-19T07:23:16.255Z,14.43
2022-08-19T07:25:53.230Z,13.90
2022-08-19T07:28:24.303Z,12.23
2022-08-19T07:30:53.726Z,15.75
2022-08-19T07:33:22.159Z,16.60
2022-08-19T07:35:50.914Z,17.77
2022-08-19T07:38:18.780Z,20.40
2022-08-19T07:40:47.249Z,16.23
2022-08-19T07:43:24.022Z,18.47
2022-08-19T07:45:59.561Z,16.93
2022-08-19T07:48:30.670Z,19.80
2022-08-19T07:51:05.421Z,19.93
2022-08-19T07:53:39.171Z,18.80
2022-08-19T07:56:08.089Z,19.30
2022-08-19T07:58:44.508Z,16.07
2022-08-19T08:01:27.335Z,18.63
2022-08-19T08:04:17.125Z,20.57
2022-08-19T08:07:03.959Z,21.90
2022-08-19T08:09:41.322Z,19.60
2022-08-19T08:12:35.029Z,23.70
2022-08-19T08:15:17.129Z,21.53
2022-08-19T08:17:49.256Z,21.10
2022-08-19T08:20:19.378Z,20.43
2022-08-19T08:23:07.881Z,24.27
2022-08-19T08:25:38.346Z,24.33
2022-08-19T08:28:08.556Z,23.10
2022-08-19T08:30:45.119Z,22.73
2022-08-19T08:33:18.093Z,21.90
2022-08-19T08:36:01.084Z,19.67
2022-08-19T08:38:30.509Z,22.17
2022-08-19T08:41:55.299Z,18.97
2022-08-19T08:44:48.261Z,20.13
2022-08-19T08:47:23.871Z,17.73
2022-08-19T08:50:05.408Z,18.33
2022-08-19T08:52:46.585Z,22.10
2022-08-19T08:55:36.920Z,25.33
2022-08-19T08:58:17.719Z,24.67
2022-08-19T09:00:51.081Z,24.50
2022-08-19T09:03:31.514Z,23.53
2022-08-19T09:06:23.180Z,22.60
2022-08-19T09:09:47.929Z,21.40
2022-08-19T09:13:14.750Z,23.47
2022-08-19T09:16:08.146Z,19.33
2022-08-19T09:18:55.561Z,19.27
2022-08-19T09:21:30.560Z,21.03
2022-08-19T09:24:05.571Z,20.63
2022-08-19T09:26:48.532Z,19.13
2022-08-19T09:29:22.568Z,22.77
2022-08-19T09:31:51.166Z,21.97
2022-08-19T09:34:22.094Z,22.27
2022-08-19T09:36:54.504Z,20.63
2022-08-19T09:39:23.164Z,19.40
2022-08-19T09:41:51.167Z,21.20
2022-08-19T09:44:21.958Z,19.83
2022-08-19T09:46:49.960Z,15.57
2022-08-19T09:49:22.858Z,21.73
2022-08-19T09:51:57.256Z,19.17
2022-08-19T09:54:26.091Z,15.50
2022-08-19T09:57:01.288Z,18.97
2022-08-19T09:59:33.293Z,17.07
2022-08-19T10:02:03.594Z,17.87
2022-08-19T10:04:56.893Z,17.07
2022-08-19T10:07:28.830Z,16.93
2022-08-19T10:10:07.875Z,19.73
2022-08-19T10:12:37.875Z,23.77
2022-08-19T10:15:08.977Z,20.87
2022-08-19T10:17:38.003Z,23.03
2022-08-19T10:20:07.278Z,18.47
2022-08-19T10:22:36.876Z,21.70
2022-08-19T10:25:07.775Z,19.07
2022-08-19T10:27:35.677Z,20.23
2022-08-19T10:30:04.972Z,17.33
2022-08-19T10:32:38.368Z,17.83
2022-08-19T10:35:16.274Z,18.77
2022-08-19T10:37:57.448Z,19.23
2022-08-19T10:40:30.312Z,20.10
2022-08-19T10:42:58.026Z,23.90
2022-08-19T10:45:28.134Z,21.00
2022-08-19T10:47:56.248Z,18.63
2022-08-19T10:50:42.737Z,22.33
2022-08-19T10:53:10.613Z,20.90
2022-08-19T10:55:57.069Z,21.40
2022-08-19T10:58:24.751Z,22.63
2022-08-19T11:00:59.996Z,24.60
2022-08-19T11:03:32.115Z,24.10
2022-08-19T11:06:03.877Z,21.17
2022-08-19T11:08:32.334Z,20.70
2022-08-19T11:11:04.398Z,19.53
2022-08-19T11:13:39.362Z,19.37
2022-08-19T11:16:27.154Z,17.27
2022-08-19T11:19:00.889Z,17.13
2022-08-19T11:21:38.778Z,19.47
2022-08-19T11:24:14.729Z,17.80
2022-08-19T11:26:45.949Z,24.83
2022-08-19T11:29:14.861Z,20.70
2022-08-19T11:31:50.643Z,22.10
2022-08-19T11:34:28.623Z,18.20
2022-08-19T11:37:01.130Z,20.00
2022-08-19T11:39:33.941Z,20.90
2022-08-19T11:42:27.616Z,20.37
2022-08-19T11:44:55.900Z,17.63
2022-08-19T11:47:23.584Z,17.83
2022-08-19T11:49:51.169Z,17.30
2022-08-19T11:52:18.638Z,21.40
2022-08-19T11:54:46.266Z,15.77
2022-08-19T11:57:15.888Z,17.60
2022-08-19T11:59:43.910Z,21.73
2022-08-19T12:02:11.842Z,13.60
2022-08-19T12:04:39.375Z,16.63
2022-08-19T12:07:07.455Z,15.20
2022-08-19T12:09:35.539Z,13.70
2022-08-19T12:12:03.762Z,12.27
2022-08-19T12:14:31.747Z,9.87
2022-08-19T12:16:59.774Z,10.13
2022-08-19T12:19:27.405Z,21.10
2022-08-19T12:22:04.740Z,13.93
2022-08-19T12:24:34.072Z,14.63
2022-08-19T12:27:02.990Z,15.33
2022-08-19T12:29:31.730Z,12.63
2022-08-19T12:32:03.983Z,11.33
2022-08-19T12:34:34.008Z,11.20
2022-08-19T12:37:07.312Z,14.37
2022-08-19T12:39:44.542Z,14.67
2022-08-19T12:42:15.283Z,8.70
2022-08-19T12:44:44.962Z,8.60
2022-08-19T12:47:15.457Z,8.33
2022-08-19T12:49:54.413Z,8.07
2022-08-19T12:52:28.415Z,8.50
2022-08-19T12:54:59.024Z,9.60
2022-08-19T12:57:32.857Z,9.50
2022-08-19T13:00:17.852Z,7.73
2022-08-19T13:02:51.469Z,7.03
2022-08-19T13:05:26.205Z,9.73
2022-08-19T13:07:58.369Z,7.23
2022-08-19T13:10:36.453Z,8.43
2022-08-19T13:13:10.845Z,7.57
2022-08-19T13:15:45.908Z,6.93
2022-08-19T13:18:14.353Z,10.63
2022-08-19T13:20:43.140Z,8.13
2022-08-19T13:23:20.688Z,8.50
2022-08-19T13:26:05.701Z,9.67
2022-08-19T13:28:54.244Z,6.93
2022-08-19T13:31:45.339Z,12.60
2022-08-19T13:34:15.666Z,10.50
2022-08-19T13:36:43.671Z,6.87
2022-08-19T13:39:11.892Z,8.87
2022-08-19T13:41:50.903Z,6.83
2022-08-19T13:44:20.343Z,6.30
2022-08-19T13:46:54.134Z,5.63
2022-08-19T13:49:22.795Z,6.80
2022-08-19T13:51:50.288Z,6.30
2022-08-19T13:54:18.723Z,6.30
2022-08-19T13:56:47.271Z,6.53
2022-08-19T13:59:16.008Z,9.27
2022-08-19T14:01:43.711Z,6.30
2022-08-19T14:04:11.310Z,9.83
2022-08-19T14:06:38.935Z,6.67
2022-08-19T14:09:06.852Z,7.57
2022-08-19T14:11:34.411Z,9.63
2022-08-19T14:14:02.032Z,8.50
2022-08-19T14:16:31.451Z,8.30
2022-08-19T14:18:59.194Z,9.83
2022-08-19T14:21:27.726Z,8.67
2022-08-19T14:23:55.520Z,7.30
2022-08-19T14:26:24.901Z,7.37
2022-08-19T14:28:53.229Z,7.93
2022-08-19T14:31:27.853Z,9.23
2022-08-19T14:33:59.188Z,9.40
2022-08-19T14:36:26.807Z,8.80
2022-08-19T14:38:54.393Z,10.73
2022-08-19T14:41:25.134Z,10.67
2022-08-19T14:43:55.915Z,10.47
2022-08-19T14:46:29.586Z,12.13
2022-08-19T14:48:59.978Z,13.03
2022-08-19T14:51:28.711Z,11.70
2022-08-19T14:53:57.198Z,14.47
2022-08-19T14:56:31.334Z,13.23
2022-08-19T14:59:02.063Z,13.30
2022-08-19T15:01:29.894Z,14.17
2022-08-19T15:03:57.463Z,14.80
2022-08-19T15:06:27.722Z,12.70
2022-08-19T15:08:58.565Z,14.80
2022-08-19T15:11:30.547Z,13.40
2022-08-19T15:13:58.366Z,13.93
2022-08-19T15:16:28.799Z,11.47
2022-08-19T15:19:00.945Z,13.13
2022-08-19T15:21:31.283Z,12.70
2022-08-19T15:24:01.573Z,27.00
2022-08-19T15:26:33.349Z,10.30
2022-08-19T15:29:04.200Z,11.57
2022-08-19T15:31:38.286Z,10.13
2022-08-19T15:34:06.929Z,8.47
2022-08-19T15:36:36.852Z,16.33
2022-08-19T15:39:20.544Z,12.00
2022-08-19T15:41:48.457Z,10.47
2022-08-19T15:44:22.207Z,10.50
2022-08-19T15:46:50.274Z,9.43
2022-08-19T15:49:20.454Z,10.30
2022-08-19T15:51:53.049Z,11.23
2022-08-19T15:54:22.610Z,11.37
2022-08-19T15:57:15.001Z,12.17
2022-08-19T16:00:02.639Z,11.70
2022-08-19T16:02:49.713Z,14.23
2022-08-19T16:05:45.884Z,13.83
2022-08-19T16:08:13.495Z,10.90
2022-08-19T16:10:41.257Z,12.63
2022-08-19T16:13:10.934Z,12.00
2022-08-19T16:15:42.084Z,12.73
2022-08-19T16:18:09.564Z,13.13
2022-08-19T16:20:37.098Z,13.80
2022-08-19T16:23:05.263Z,13.37
2022-08-19T16:25:33.072Z,14.30
2022-08-19T16:28:07.231Z,14.93
2022-08-19T16:30:40.351Z,15.27
2022-08-19T16:33:11.481Z,13.43
2022-08-19T16:35:39.761Z,13.07
2022-08-19T16:38:07.394Z,12.13
2022-08-19T16:40:36.206Z,11.07
2022-08-19T16:43:05.127Z,14.97
2022-08-19T16:45:32.922Z,13.43
2022-08-19T16:48:00.487Z,12.23
2022-08-19T16:50:46.116Z,12.33
2022-08-19T16:53:29.164Z,10.47
2022-08-19T16:56:00.269Z,11.47
2022-08-19T16:58:34.084Z,11.77
2022-08-19T17:01:12.349Z,10.13
2022-08-19T17:03:40.567Z,11.23
2022-08-19T17:06:27.783Z,12.43
2022-08-19T17:09:02.024Z,9.73
2022-08-19T17:11:34.484Z,10.40
2022-08-19T17:14:05.820Z,10.77
2022-08-19T17:16:37.431Z,19.80
2022-08-19T17:19:08.503Z,12.50
2022-08-19T17:21:38.285Z,12.13
2022-08-19T17:24:08.792Z,11.97
2022-08-19T17:26:38.985Z,11.83
2022-08-19T17:29:07.059Z,11.33
2022-08-19T17:31:35.284Z,14.10
2022-08-19T17:34:06.218Z,17.40
2022-08-19T17:36:34.944Z,10.97
2022-08-19T17:39:05.939Z,12.20
2022-08-19T17:41:34.572Z,13.10
2022-08-19T17:44:04.578Z,9.47
2022-08-19T17:46:34.167Z,12.27
2022-08-19T17:49:02.026Z,10.20
2022-08-19T17:51:42.189Z,11.20
2022-08-19T17:54:18.923Z,14.23
2022-08-19T17:56:48.299Z,10.73
2022-08-19T17:59:17.203Z,11.77
2022-08-19T18:01:53.183Z,14.60
2022-08-19T18:04:26.681Z,10.70
2022-08-19T18:06:55.733Z,9.03
2022-08-19T18:09:41.758Z,15.47
2022-08-19T18:12:16.441Z,15.53
2022-08-19T18:14:44.149Z,13.60
2022-08-19T18:17:19.200Z,18.10
2022-08-19T18:19:48.080Z,14.70
2022-08-19T18:22:39.444Z,14.40
2022-08-19T18:25:25.913Z,13.13
2022-08-19T18:27:59.799Z,15.73
2022-08-19T18:30:34.557Z,13.97
2022-08-19T18:33:14.441Z,17.90
2022-08-19T18:35:49.008Z,16.20
2022-08-19T18:38:40.488Z,13.27
2022-08-19T18:41:28.242Z,15.13
2022-08-19T18:44:15.006Z,17.47
2022-08-19T18:47:01.224Z,17.50
2022-08-19T18:49:33.386Z,16.73
2022-08-19T18:52:03.276Z,17.23
2022-08-19T18:54:31.329Z,16.60
2022-08-19T18:56:59.393Z,16.83
2022-08-19T18:59:29.516Z,16.30
2022-08-19T19:02:00.741Z,15.70
2022-08-19T19:04:38.506Z,17.73
2022-08-19T19:07:09.162Z,22.10
2022-08-19T19:09:38.279Z,17.30
2022-08-19T19:12:11.482Z,15.33
2022-08-19T19:14:50.298Z,14.70
2022-08-19T19:17:18.627Z,23.10
2022-08-19T19:19:46.853Z,19.27
2022-08-19T19:22:24.015Z,17.93
2022-08-19T19:24:56.218Z,18.70
2022-08-19T19:27:23.898Z,14.57
2022-08-19T19:29:53.015Z,15.23
2022-08-19T19:32:38.971Z,13.80
2022-08-19T19:35:10.755Z,13.73
2022-08-19T19:37:38.312Z,15.70
2022-08-19T19:40:06.945Z,14.23
2022-08-19T19:42:35.156Z,17.53
2022-08-19T19:45:03.171Z,18.67
2022-08-19T19:47:31.100Z,15.67
2022-08-19T19:50:15.781Z,14.20
2022-08-19T19:52:47.057Z,15.30
2022-08-19T19:55:20.719Z,15.73
2022-08-19T19:57:49.623Z,19.60
2022-08-19T20:00:19.538Z,17.20
2022-08-19T20:02:50.410Z,19.77
2022-08-19T20:05:21.532Z,17.00
2022-08-19T20:08:11.528Z,15.00
2022-08-19T20:10:43.477Z,19.17
2022-08-19T20:13:15.597Z,16.53
2022-08-19T20:15:43.691Z,15.63
2022-08-19T20:18:16.561Z,14.17
2022-08-19T20:20:50.013Z,10.43
2022-08-19T20:23:23.824Z,10.30
2022-08-19T20:25:54.463Z,10.53
2022-08-19T20:28:22.834Z,9.63
2022-08-19T20:30:51.110Z,15.10
2022-08-19T20:33:19.320Z,8.93
2022-08-19T20:35:47.196Z,11.53
2022-08-19T20:38:15.806Z,8.10
2022-08-19T20:40:44.503Z,10.20
2022-08-19T20:43:14.263Z,9.00
2022-08-19T20:45:41.833Z,9.43
2022-08-19T20:48:12.442Z,12.60
2022-08-19T20:50:40.826Z,8.33
2022-08-19T20:53:23.015Z,9.30
2022-08-19T20:55:51.448Z,7.87
2022-08-19T20:58:24.892Z,7.87
2022-08-19T21:01:00.205Z,10.43
2022-08-19T21:03:35.891Z,10.57
2022-08-19T21:06:14.648Z,7.87
2022-08-19T21:08:42.641Z,10.57
2022-08-19T21:11:29.124Z,9.30
2022-08-19T21:14:00.336Z,9.20
2022-08-19T21:16:28.402Z,8.87
2022-08-19T21:18:56.527Z,10.47
2022-08-19T21:21:24.367Z,9.90
2022-08-19T21:23:52.079Z,10.37
2022-08-19T21:26:19.783Z,8.80
2022-08-19T21:28:47.517Z,11.13
2022-08-19T21:31:17.968Z,11.00
2022-08-19T21:33:45.837Z,10.60
2022-08-19T21:36:13.353Z,12.07
2022-08-19T21:38:41.974Z,18.87
2022-08-19T21:41:10.277Z,11.70
2022-08-19T21:43:39.660Z,12.30
2022-08-19T21:46:09.060Z,10.30
2022-08-19T21:48:37.221Z,8.60
2022-08-19T21:51:04.910Z,13.10
2022-08-19T21:53:34.541Z,13.70
2022-08-19T21:56:07.073Z,11.60
2022-08-19T21:58:38.597Z,13.80
2022-08-19T22:01:08.140Z,19.33
2022-08-19T22:03:39.380Z,16.40
2022-08-19T22:06:08.517Z,13.70
2022-08-19T22:08:37.061Z,15.50
2022-08-19T22:11:05.307Z,15.37
2022-08-19T22:13:39.950Z,16.43
2022-08-19T22:16:09.651Z,15.53
2022-08-19T22:18:37.189Z,15.93
2022-08-19T22:21:11.358Z,15.00
2022-08-19T22:23:44.522Z,16.40
2022-08-19T22:26:16.978Z,15.43
2022-08-19T22:28:46.087Z,12.70
2022-08-19T22:31:15.721Z,15.20
2022-08-19T22:33:43.533Z,15.33
2022-08-19T22:36:11.419Z,13.23
2022-08-19T22:38:39.064Z,13.43
2022-08-19T22:41:09.569Z,14.70
2022-08-19T22:43:38.036Z,15.70
2022-08-19T22:46:17.208Z,17.63
2022-08-19T22:48:47.613Z,13.30
2022-08-19T22:51:35.262Z,15.63
2022-08-19T22:54:04.820Z,16.77
2022-08-19T22:56:32.329Z,21.00
2022-08-19T22:58:59.914Z,20.80
2022-08-19T23:01:30.320Z,21.37
2022-08-19T23:04:00.192Z,18.30
2022-08-19T23:06:34.524Z,19.30
2022-08-19T23:09:08.867Z,18.33
2022-08-19T23:11:41.699Z,21.30
2022-08-19T23:14:12.628Z,24.07
2022-08-19T23:16:42.146Z,26.17
2022-08-19T23:19:11.955Z,24.80
2022-08-19T23:21:42.791Z,23.97
2022-08-19T23:24:11.988Z,24.53
2022-08-19T23:27:00.409Z,21.83
2022-08-19T23:29:46.199Z,29.60
2022-08-19T23:32:16.140Z,22.63
2022-08-19T23:34:43.947Z,25.23
2022-08-19T23:37:12.269Z,25.13
2022-08-19T23:39:40.806Z,25.97
2022-08-19T23:42:12.933Z,26.77
2022-08-19T23:44:51.322Z,23.13
2022-08-19T23:47:22.013Z,24.83
2022-08-19T23:49:50.760Z,25.43
2022-08-19T23:52:18.544Z,23.57
2022-08-19T23:54:46.325Z,25.60
2022-08-19T23:57:14.574Z,23.43
2022-08-19T23:59:45.695Z,29.83
